Aviation Digital Data Service (ADDS)

Output produced by METARs form (0406 UTC 24 May 2017)
found at http://aviationweather.gov/adds/metars/
 
KLBT 232321Z 2400/2424 21007KT P6SM SCT008 OVC060 
     TEMPO 2400/2403 4SM SHRA BR BKN008 
     FM240300 21007KT P6SM OVC025 
     TEMPO 2403/2405 5SM SHRA BR OVC008 
     FM240500 24006KT P6SM VCSH OVC005 
     FM240900 24004KT 5SM BR OVC008 
     PROB30 2413/2416 4SM -SHRA OVC005 
     FM241600 17006KT P6SM SHRA VCTS OVC025CB 
     FM242000 17010KT P6SM SHRA VCTS OVC030CB